Time;durP1;ratioP1;P1;durP2;ratioP2;P2;SDS_P1;SDS_P2;PMS_P1;PMS_P2;Temp;Humidity;BMP_temperature;BMP_pressure;BME280_temperature;BME280_humidity;BME280_pressure;Samples;Min_cycle;Max_cycle;Signal;HPM_P1;HPM_P2
2023/03/21 00:01:39;;;;;;;40.20;28.60;;;;;;;8.19;99.92;99004.86;269299;1273;24262;-83
2023/03/21 00:07:41;;;;;;;44.60;28.70;;;;;;;8.15;99.83;99005.80;269011;1272;23415;-83
2023/03/21 00:13:49;;;;;;;46.30;28.00;;;;;;;8.11;100.00;99004.39;272236;1273;22541;-84
2023/03/21 00:19:54;;;;;;;39.50;26.70;;;;;;;8.10;100.00;98998.11;269594;1272;24275;-84
2023/03/21 00:25:56;;;;;;;42.30;28.10;;;;;;;8.07;100.00;98994.79;270254;1272;22204;-84
2023/03/21 00:32:00;;;;;;;46.20;30.40;;;;;;;8.03;100.00;98988.70;272942;1272;22432;-84
2023/03/21 00:38:22;;;;;;;42.60;27.70;;;;;;;8.00;100.00;98980.80;272952;1272;23000;-84
2023/03/21 00:44:24;;;;;;;41.20;28.40;;;;;;;8.00;100.00;98979.47;273453;1274;22248;-83
2023/03/21 00:50:26;;;;;;;43.50;28.90;;;;;;;8.01;100.00;98973.09;270367;1271;22541;-83
2023/03/21 00:56:30;;;;;;;43.90;30.20;;;;;;;8.00;100.00;98971.14;269255;1274;22537;-84
2023/03/21 01:02:32;;;;;;;45.50;29.20;;;;;;;8.00;100.00;98969.48;269079;1267;22704;-84
2023/03/21 01:08:40;;;;;;;37.70;26.30;;;;;;;7.96;100.00;98967.69;269100;1272;22541;-83
2023/03/21 01:14:47;;;;;;;47.50;29.80;;;;;;;7.91;100.00;98967.60;269225;1275;22973;-83
2023/03/21 01:21:09;;;;;;;45.80;29.90;;;;;;;7.87;100.00;98967.02;270298;1272;23173;-84
2023/03/21 01:27:12;;;;;;;43.80;28.30;;;;;;;7.86;100.00;98969.73;272879;1272;22384;-83
2023/03/21 01:33:15;;;;;;;42.50;27.10;;;;;;;7.86;100.00;98965.61;272889;1270;22604;-84
2023/03/21 01:39:37;;;;;;;44.50;28.60;;;;;;;7.88;100.00;98968.06;273145;1279;22637;-84
2023/03/21 01:46:13;;;;;;;33.90;23.20;;;;;;;7.91;100.00;98967.73;273046;1271;22186;-84
2023/03/21 01:52:36;;;;;;;36.30;23.60;;;;;;;7.93;100.00;98965.85;273013;1275;22463;-83
2023/03/21 01:58:38;;;;;;;41.80;27.50;;;;;;;7.97;100.00;98958.23;273077;1259;22184;-84
2023/03/21 02:04:57;;;;;;;41.40;26.40;;;;;;;8.02;100.00;98957.21;273144;1273;22376;-83
2023/03/21 02:11:03;;;;;;;;;;;;;;;8.05;100.00;98959.86;272912;1276;22541;-83
2023/03/21 02:17:23;;;;;;;40.50;27.00;;;;;;;8.07;100.00;98961.77;269652;1270;25318;-84
2023/03/21 02:24:26;;;;;;;41.60;27.40;;;;;;;8.09;100.00;98961.09;270068;1271;24201;-83
2023/03/21 02:30:50;;;;;;;39.70;28.00;;;;;;;8.10;100.00;98965.70;272080;1273;22207;-84
2023/03/21 02:37:19;;;;;;;44.60;31.00;;;;;;;8.09;100.00;98963.05;273084;1261;22252;-83
2023/03/21 02:43:45;;;;;;;45.50;29.80;;;;;;;8.09;100.00;98960.95;272777;1272;22197;-83
2023/03/21 02:49:55;;;;;;;40.40;26.40;;;;;;;8.07;100.00;98954.66;271939;1273;22611;-83
2023/03/21 02:55:59;;;;;;;51.70;32.60;;;;;;;8.05;100.00;98962.04;271610;1273;23986;-84
2023/03/21 03:02:26;;;;;;;54.60;34.00;;;;;;;8.03;100.00;98965.72;270129;1272;22642;-85
2023/03/21 03:08:59;;;;;;;38.80;25.40;;;;;;;8.02;100.00;98963.83;269310;1261;23475;-83
2023/03/21 03:15:44;;;;;;;62.10;36.50;;;;;;;8.01;100.00;98963.59;270426;1264;23101;-83
2023/03/21 03:22:08;;;;;;;59.50;34.60;;;;;;;7.99;100.00;98961.67;271972;1264;22556;-83
2023/03/21 03:28:53;;;;;;;57.90;35.20;;;;;;;7.97;100.00;98959.63;272000;1273;22230;-83
2023/03/21 03:34:56;;;;;;;57.00;34.30;;;;;;;7.98;100.00;98966.10;273083;1279;22213;-83
2023/03/21 03:41:21;;;;;;;59.00;33.80;;;;;;;7.97;100.00;98965.79;271942;1276;22193;-83
2023/03/21 03:48:03;;;;;;;61.20;36.40;;;;;;;7.99;100.00;98969.32;270403;1271;22376;-83
2023/03/21 03:54:21;;;;;;;55.70;33.40;;;;;;;7.99;100.00;98968.91;269318;1273;22567;-83
2023/03/21 04:00:31;;;;;;;59.80;34.10;;;;;;;7.99;100.00;98966.66;270453;1273;22423;-81
2023/03/21 04:06:35;;;;;;;62.70;36.00;;;;;;;7.99;100.00;98965.73;272665;1264;22204;-83
2023/03/21 04:12:38;;;;;;;63.40;35.10;;;;;;;7.97;100.00;98966.93;272921;1264;22259;-83
2023/03/21 04:18:58;;;;;;;58.30;32.80;;;;;;;7.96;100.00;98961.69;272196;1264;22421;-83
2023/03/21 04:25:04;;;;;;;57.30;32.90;;;;;;;7.95;100.00;98954.91;272739;1274;23340;-84
2023/03/21 04:31:08;;;;;;;51.50;30.70;;;;;;;7.92;100.00;98959.83;272966;1277;22271;-84
2023/03/21 04:37:38;;;;;;;50.80;30.40;;;;;;;7.88;100.00;98961.84;272946;1271;22453;-83
2023/03/21 04:43:43;;;;;;;48.40;28.40;;;;;;;7.83;100.00;98958.16;270276;1273;22438;-83
2023/03/21 04:49:49;;;;;;;47.20;27.40;;;;;;;7.78;100.00;98958.60;270074;1273;119814;-83
2023/03/21 04:55:50;;;;;;;39.70;26.10;;;;;;;7.72;100.00;98962.75;270655;1271;22561;-83
2023/03/21 05:01:55;;;;;;;38.40;23.70;;;;;;;7.71;100.00;98970.28;269548;1271;23807;-84
2023/03/21 05:08:35;;;;;;;41.90;23.50;;;;;;;7.72;100.00;98971.08;268981;1268;22731;-84
2023/03/21 05:15:04;;;;;;;40.30;21.40;;;;;;;7.72;100.00;98970.92;268938;1275;22605;-83
2023/03/21 05:21:09;;;;;;;38.80;23.10;;;;;;;7.67;100.00;98970.57;268981;1274;22526;-83
2023/03/21 05:27:33;;;;;;;37.60;21.40;;;;;;;7.59;100.00;98966.73;269773;1260;22507;-84
2023/03/21 05:33:57;;;;;;;33.30;19.30;;;;;;;7.57;100.00;98971.91;272578;1272;22395;-84
2023/03/21 05:39:59;;;;;;;30.60;18.10;;;;;;;7.61;100.00;98978.61;272611;1270;22473;-84
2023/03/21 05:46:05;;;;;;;27.70;16.90;;;;;;;7.64;100.00;98984.98;270465;1270;22595;-83
2023/03/21 05:52:07;;;;;;;26.20;15.50;;;;;;;7.66;100.00;98985.64;269844;1271;22480;-84
2023/03/21 05:58:09;;;;;;;26.50;16.60;;;;;;;7.66;100.00;98996.23;271671;1270;22489;-84
2023/03/21 06:04:13;;;;;;;26.80;16.30;;;;;;;7.71;100.00;98996.52;270601;1260;22759;-84
2023/03/21 06:10:15;;;;;;;29.70;16.50;;;;;;;7.76;100.00;98994.67;271661;1270;22292;-83
2023/03/21 06:16:38;;;;;;;24.80;15.80;;;;;;;7.81;100.00;98994.55;272557;1267;23188;-83
2023/03/21 06:23:01;;;;;;;24.20;13.40;;;;;;;7.84;100.00;98995.93;271997;1259;22568;-84
2023/03/21 06:29:04;;;;;;;22.80;13.90;;;;;;;7.88;100.00;99000.48;270953;1257;23451;-83
2023/03/21 06:35:06;;;;;;;17.60;12.30;;;;;;;7.89;100.00;99002.35;270865;1271;22303;-82
2023/03/21 06:41:09;;;;;;;18.10;10.90;;;;;;;7.92;100.00;99003.19;271181;1271;22254;-83
2023/03/21 06:47:15;;;;;;;23.00;12.30;;;;;;;7.93;100.00;99004.38;269485;1271;22481;-83
2023/03/21 06:53:19;;;;;;;19.60;12.60;;;;;;;7.97;100.00;99002.46;269643;1271;22522;-82
2023/03/21 06:59:41;;;;;;;18.90;11.50;;;;;;;8.08;100.00;99001.76;271976;1271;22990;-83
2023/03/21 07:06:06;;;;;;;16.00;9.90;;;;;;;8.25;100.00;99008.02;270471;1261;23229;-82
2023/03/21 07:12:08;;;;;;;13.60;8.90;;;;;;;8.35;100.00;99007.09;269822;1272;22527;-83
2023/03/21 07:18:31;;;;;;;12.90;8.80;;;;;;;8.53;100.00;99011.98;269447;1269;25384;-83
2023/03/21 07:24:32;;;;;;;13.80;8.70;;;;;;;8.68;100.00;99009.45;269651;1265;23059;-83
2023/03/21 07:30:35;;;;;;;18.00;9.30;;;;;;;8.81;100.00;99008.75;270133;1271;22556;-85
2023/03/21 07:36:37;;;;;;;11.70;7.90;;;;;;;9.13;100.00;99002.29;271812;1268;22285;-82
2023/03/21 07:42:40;;;;;;;12.50;8.40;;;;;;;9.58;100.00;98998.23;272007;1262;22582;-84
2023/03/21 07:48:42;;;;;;;14.20;8.90;;;;;;;10.08;100.00;98998.95;269824;1264;22565;-84
2023/03/21 07:54:44;;;;;;;15.70;9.00;;;;;;;10.36;100.00;99004.42;269718;1271;22574;-84
2023/03/21 08:00:46;;;;;;;14.40;7.70;;;;;;;10.45;100.00;99006.09;269234;1271;22691;-85
2023/03/21 08:06:49;;;;;;;10.60;6.90;;;;;;;10.50;100.00;99009.73;268957;1270;22771;-84
2023/03/21 08:12:51;;;;;;;9.70;6.40;;;;;;;10.74;100.00;99011.02;269597;1271;22537;-84
2023/03/21 08:18:53;;;;;;;9.60;6.90;;;;;;;10.88;100.00;99010.63;271958;1273;23310;-84
2023/03/21 08:24:55;;;;;;;11.00;7.20;;;;;;;10.87;100.00;99017.11;272722;1260;24236;-85
2023/03/21 08:30:56;;;;;;;12.20;8.90;;;;;;;10.74;100.00;99017.52;272322;1271;23316;-83
2023/03/21 08:37:03;;;;;;;14.60;9.80;;;;;;;10.64;100.00;99016.39;272937;1273;22252;-84
2023/03/21 08:43:05;;;;;;;15.10;10.40;;;;;;;10.50;100.00;99020.45;273034;1262;22223;-84
2023/03/21 08:49:06;;;;;;;15.40;10.70;;;;;;;10.24;100.00;99028.80;272966;1258;22207;-84
2023/03/21 08:55:09;;;;;;;16.00;11.10;;;;;;;10.09;100.00;99030.01;272817;1272;22210;-84
2023/03/21 09:01:14;;;;;;;15.40;10.20;;;;;;;10.07;100.00;99033.48;273076;1276;22296;-83
2023/03/21 09:07:26;;;;;;;13.80;10.50;;;;;;;10.06;100.00;99041.36;272948;1279;22216;-83
2023/03/21 09:13:48;;;;;;;16.80;10.60;;;;;;;10.05;100.00;99043.76;272028;1271;26149;-84
2023/03/21 09:19:50;;;;;;;15.50;11.00;;;;;;;10.10;100.00;99041.65;271660;1271;22377;-84
2023/03/21 09:25:52;;;;;;;17.00;11.80;;;;;;;10.25;100.00;99048.60;271970;1271;22620;-84
2023/03/21 09:31:53;;;;;;;21.00;14.50;;;;;;;10.41;100.00;99050.84;270715;1271;22523;-83
2023/03/21 09:38:00;;;;;;;24.10;14.60;;;;;;;10.52;100.00;99048.06;270038;1265;22565;-83
2023/03/21 09:44:21;;;;;;;24.10;16.10;;;;;;;10.60;100.00;99047.09;271321;1271;22642;-84
2023/03/21 09:50:47;;;;;;;20.20;13.80;;;;;;;10.82;100.00;99053.35;270971;1272;23349;-84
2023/03/21 09:56:52;;;;;;;22.00;14.50;;;;;;;11.16;100.00;99053.08;272210;1265;23416;-84
2023/03/21 10:02:58;;;;;;;20.60;14.80;;;;;;;11.07;100.00;99054.56;271834;1271;23226;-84
2023/03/21 10:09:21;;;;;;;21.50;15.50;;;;;;;11.10;100.00;99054.75;272968;1271;22443;-83
2023/03/21 10:15:25;;;;;;;22.10;15.40;;;;;;;11.27;100.00;99057.57;272716;1272;22910;-83
2023/03/21 10:21:47;;;;;;;24.90;14.40;;;;;;;11.36;99.81;99058.73;273259;1279;23144;-82
2023/03/21 10:27:51;;;;;;;22.50;13.60;;;;;;;11.22;99.42;99055.48;272824;1272;22515;-84
2023/03/21 10:34:18;;;;;;;23.20;15.50;;;;;;;11.21;99.90;99054.15;273062;1272;22909;-84
2023/03/21 10:40:48;;;;;;;22.40;15.50;;;;;;;11.27;100.00;99055.53;272937;1277;22278;-83
2023/03/21 10:46:56;;;;;;;21.70;14.90;;;;;;;11.34;100.00;99056.54;273002;1280;22223;-84
2023/03/21 10:52:59;;;;;;;21.20;15.00;;;;;;;11.36;99.57;99057.48;272604;1270;23634;-82
2023/03/21 10:59:01;;;;;;;23.90;16.40;;;;;;;11.28;98.77;99059.54;273287;1272;22368;-84
2023/03/21 11:05:05;;;;;;;23.00;15.90;;;;;;;11.23;99.04;99055.41;273231;1274;22168;-83
2023/03/21 11:11:11;;;;;;;22.60;16.00;;;;;;;11.34;99.06;99050.66;272031;1271;23063;-85
2023/03/21 11:17:47;;;;;;;24.20;16.00;;;;;;;11.49;98.62;99053.70;270252;1271;23975;-83
2023/03/21 11:23:50;;;;;;;24.60;15.90;;;;;;;11.52;97.70;99055.60;269865;1271;22609;-83
2023/03/21 11:29:54;;;;;;;23.00;15.90;;;;;;;11.48;97.26;99054.06;270047;1271;22538;-83
2023/03/21 11:36:20;;;;;;;24.90;16.10;;;;;;;11.56;97.05;99051.55;270601;1272;22437;-84
2023/03/21 11:42:46;;;;;;;24.10;16.70;;;;;;;11.44;95.61;99052.00;272991;1271;22363;-84
2023/03/21 11:48:48;;;;;;;26.60;17.70;;;;;;;11.43;95.71;99045.41;272888;1271;22187;-84
2023/03/21 11:55:01;;;;;;;25.40;18.00;;;;;;;11.51;95.30;99043.98;273068;1279;22233;-83
2023/03/21 12:01:56;;;;;;;31.40;20.40;;;;;;;11.37;94.14;99042.39;272947;1261;22409;-83
2023/03/21 12:08:09;;;;;;;28.40;19.50;;;;;;;11.20;94.33;99039.04;272631;1271;23291;-84
2023/03/21 12:14:32;;;;;;;37.90;23.50;;;;;;;11.26;94.78;99032.97;272972;1272;22188;-84
2023/03/21 12:21:23;;;;;;;31.10;21.50;;;;;;;11.39;94.46;99029.95;273074;1272;22413;-84
2023/03/21 12:28:06;;;;;;;35.10;22.70;;;;;;;11.13;93.14;99028.54;272976;1273;22280;-84
2023/03/21 12:34:15;;;;;;;37.40;24.00;;;;;;;10.89;94.29;99023.54;273300;1271;22367;-83
2023/03/21 12:40:45;;;;;;;33.70;21.10;;;;;;;10.85;94.76;99021.08;273191;1271;23172;-84
2023/03/21 12:47:12;;;;;;;30.90;21.20;;;;;;;11.00;94.90;99020.13;273426;1278;22967;-84
2023/03/21 12:53:22;;;;;;;37.70;24.30;;;;;;;11.09;94.74;99015.67;273052;1271;22202;-83
2023/03/21 12:59:50;;;;;;;41.50;26.90;;;;;;;11.11;94.73;99010.92;273307;1271;22184;-84
2023/03/21 13:05:57;;;;;;;35.60;25.20;;;;;;;11.06;94.39;99009.23;272884;1271;24723;-84
2023/03/21 13:12:00;;;;;;;35.40;23.80;;;;;;;10.92;94.16;99006.66;273322;1272;23397;-84
2023/03/21 13:18:41;;;;;;;36.40;25.10;;;;;;;10.81;94.62;99002.81;273059;1272;23008;-84
2023/03/21 13:24:59;;;;;;;37.30;24.90;;;;;;;10.88;95.09;98997.09;272940;1271;23173;-84
2023/03/21 13:31:34;;;;;;;34.70;23.40;;;;;;;10.99;94.74;98996.80;272532;1271;22549;-84
2023/03/21 13:37:39;;;;;;;33.50;22.70;;;;;;;11.15;94.33;98989.35;269988;1271;23938;-82
2023/03/21 13:44:14;;;;;;;31.20;22.50;;;;;;;11.20;93.86;98984.30;269859;1271;22472;-84
2023/03/21 13:50:35;;;;;;;37.40;22.90;;;;;;;11.08;93.34;98984.73;271847;1271;22450;-84
2023/03/21 13:56:46;;;;;;;33.40;21.40;;;;;;;10.91;93.25;98986.95;273260;1272;22282;-84
2023/03/21 14:03:07;;;;;;;34.40;23.90;;;;;;;10.72;93.26;98988.86;273045;1272;22377;-84
2023/03/21 14:09:20;;;;;;;37.90;21.70;;;;;;;10.53;94.11;98984.12;273050;1272;22206;-84
2023/03/21 14:15:50;;;;;;;37.40;25.20;;;;;;;10.37;94.83;98982.38;272381;1272;23466;-84
2023/03/21 14:21:52;;;;;;;41.30;26.80;;;;;;;10.12;95.15;98986.12;271613;1271;22532;-84
2023/03/21 14:27:56;;;;;;;44.90;28.30;;;;;;;9.82;96.10;98992.42;270270;1267;23340;-83
2023/03/21 14:34:00;;;;;;;47.60;29.70;;;;;;;9.63;97.45;98994.71;269712;1271;22759;-84
2023/03/21 14:40:15;;;;;;;51.60;31.60;;;;;;;9.55;98.66;98990.88;271033;1272;22465;-84
2023/03/21 14:46:20;;;;;;;53.30;32.70;;;;;;;9.47;99.20;98992.16;270667;1266;22390;-83
2023/03/21 14:52:45;;;;;;;57.10;34.80;;;;;;;9.36;99.64;98988.47;271151;1263;24352;-83
2023/03/21 14:58:50;;;;;;;54.30;34.40;;;;;;;9.27;100.00;98986.14;270705;1271;22535;-83
2023/03/21 15:04:55;;;;;;;62.00;36.20;;;;;;;9.23;100.00;98984.51;272755;1272;22220;-84
2023/03/21 15:10:59;;;;;;;61.00;36.40;;;;;;;9.24;100.00;98984.98;271497;1272;22636;-84
2023/03/21 15:17:03;;;;;;;56.00;34.10;;;;;;;9.25;100.00;98981.80;271614;1271;22195;-84
2023/03/21 15:23:26;;;;;;;49.50;31.00;;;;;;;9.27;100.00;98976.61;272860;1272;22389;-84
2023/03/21 15:29:48;;;;;;;54.50;33.10;;;;;;;9.28;100.00;98974.69;271642;1272;22471;-84
2023/03/21 15:35:55;;;;;;;55.50;35.30;;;;;;;9.31;100.00;98973.55;272895;1271;22382;-84
2023/03/21 15:42:00;;;;;;;60.30;35.30;;;;;;;9.38;100.00;98972.11;273076;1264;23337;-84
2023/03/21 15:48:06;;;;;;;57.90;35.70;;;;;;;9.42;100.00;98970.90;272929;1272;23222;-84
2023/03/21 15:54:16;;;;;;;58.20;34.40;;;;;;;9.38;100.00;98969.38;271962;1271;22391;-84
2023/03/21 16:00:42;;;;;;;57.40;34.50;;;;;;;9.38;100.00;98964.63;272812;1274;22183;-82
2023/03/21 16:06:55;;;;;;;55.20;34.30;;;;;;;9.40;100.00;98969.95;273003;1278;23048;-84
2023/03/21 16:13:24;;;;;;;50.70;31.90;;;;;;;9.37;100.00;98972.88;272787;1279;22178;-84
2023/03/21 16:19:28;;;;;;;52.00;34.00;;;;;;;9.33;100.00;98971.79;272854;1261;22388;-84
2023/03/21 16:25:31;;;;;;;55.10;33.70;;;;;;;9.27;100.00;98974.74;272842;1273;22403;-84
2023/03/21 16:31:35;;;;;;;58.20;35.00;;;;;;;9.20;100.00;98980.48;273064;1273;22257;-84
2023/03/21 16:37:40;;;;;;;58.60;35.40;;;;;;;9.04;100.00;98978.58;273223;1261;22264;-84
2023/03/21 16:43:42;;;;;;;62.20;37.80;;;;;;;8.87;100.00;98976.65;272967;1275;22187;-84
2023/03/21 16:49:44;;;;;;;66.50;40.80;;;;;;;8.73;100.00;98979.13;272606;1265;134367;-84
2023/03/21 16:55:46;;;;;;;82.10;47.70;;;;;;;8.73;100.00;98984.10;272434;1262;22502;-84
2023/03/21 17:01:48;;;;;;;66.60;40.00;;;;;;;8.73;100.00;98982.55;272904;1272;22248;-84
2023/03/21 17:07:50;;;;;;;72.90;40.00;;;;;;;8.70;100.00;98982.80;270946;1272;22411;-85
2023/03/21 17:13:57;;;;;;;88.00;49.10;;;;;;;8.64;100.00;98983.25;272928;1272;22190;-84
2023/03/21 17:19:59;;;;;;;78.20;43.50;;;;;;;8.53;100.00;98986.78;272417;1273;22570;-84
2023/03/21 17:26:27;;;;;;;;;;;;;;;;;;;;;
2023/03/21 17:32:30;;;;;;;86.60;47.40;;;;;;;8.30;100.00;98998.40;272951;1273;22267;-84
2023/03/21 17:38:31;;;;;;;85.10;46.50;;;;;;;8.18;100.00;99004.15;272959;1271;23509;-84
2023/03/21 17:44:33;;;;;;;98.30;54.90;;;;;;;8.18;100.00;99007.96;273052;1271;22943;-84
2023/03/21 17:50:36;;;;;;;96.10;54.80;;;;;;;8.20;100.00;99004.41;273148;1272;23049;-84
2023/03/21 17:56:40;;;;;;;88.00;50.90;;;;;;;8.20;100.00;99006.04;272918;1263;22557;-85
2023/03/21 18:02:42;;;;;;;97.10;53.60;;;;;;;8.17;100.00;99010.05;273349;1274;22672;-84
2023/03/21 18:08:45;;;;;;;102.00;53.10;;;;;;;8.16;100.00;99010.48;273013;1271;22971;-84
2023/03/21 18:14:47;;;;;;;90.90;51.20;;;;;;;8.11;100.00;99015.36;272240;1271;22535;-85
2023/03/21 18:20:49;;;;;;;98.00;55.00;;;;;;;8.05;100.00;99022.85;271760;1271;22490;-84
2023/03/21 18:26:51;;;;;;;117.20;64.30;;;;;;;7.95;100.00;99025.61;272783;1272;23351;-86
2023/03/21 18:32:53;;;;;;;113.30;65.30;;;;;;;7.91;100.00;99024.12;265134;1270;10001335;-84
2023/03/21 18:38:55;;;;;;;118.80;66.30;;;;;;;7.95;100.00;99020.77;272948;1274;22171;-84
2023/03/21 18:44:57;;;;;;;126.30;70.40;;;;;;;7.99;100.00;99023.54;273129;1275;22180;-85
2023/03/21 18:50:59;;;;;;;130.50;72.20;;;;;;;8.01;100.00;99025.20;272988;1272;22530;-84
2023/03/21 18:57:02;;;;;;;130.20;70.80;;;;;;;7.99;100.00;99022.13;272985;1271;22475;-84
2023/03/21 19:03:05;;;;;;;135.30;72.70;;;;;;;7.99;100.00;99017.05;272856;1264;22289;-85
2023/03/21 19:09:07;;;;;;;119.30;65.10;;;;;;;7.95;100.00;99017.44;272197;1272;22538;-84
2023/03/21 19:15:10;;;;;;;138.00;77.10;;;;;;;7.84;100.00;99017.83;272146;1270;22364;-84
2023/03/21 19:21:11;;;;;;;135.30;77.40;;;;;;;7.80;100.00;99026.30;271748;1264;23022;-85
2023/03/21 19:27:13;;;;;;;122.80;68.60;;;;;;;7.78;100.00;99026.94;271697;1274;22676;-85
2023/03/21 19:33:15;;;;;;;117.30;64.10;;;;;;;7.76;100.00;99031.65;272904;1260;22153;-85
2023/03/21 19:39:20;;;;;;;122.50;68.30;;;;;;;7.71;100.00;99028.27;272709;1272;22421;-84
2023/03/21 19:45:23;;;;;;;124.20;70.90;;;;;;;7.66;100.00;99029.72;272799;1257;22368;-85
2023/03/21 19:51:25;;;;;;;116.30;64.70;;;;;;;7.59;100.00;99034.86;272680;1272;22194;-84
2023/03/21 19:57:48;;;;;;;151.30;80.70;;;;;;;7.52;100.00;99036.79;271555;1263;22560;-84
2023/03/21 20:03:50;;;;;;;147.60;76.50;;;;;;;7.48;100.00;99041.82;271278;1260;25484;-84
2023/03/21 20:09:52;;;;;;;158.30;93.30;;;;;;;7.45;100.00;99037.30;270291;1273;22599;-83
2023/03/21 20:15:54;;;;;;;149.30;79.60;;;;;;;7.42;100.00;99040.27;270209;1261;22567;-84
2023/03/21 20:21:56;;;;;;;153.30;80.30;;;;;;;7.40;100.00;99041.16;272409;1260;22214;-84
2023/03/21 20:27:57;;;;;;;159.00;83.20;;;;;;;7.40;100.00;99038.56;271477;1274;22549;-84
2023/03/21 20:33:59;;;;;;;157.30;83.60;;;;;;;7.38;100.00;99036.66;270943;1272;22369;-84
2023/03/21 20:40:04;;;;;;;141.80;79.70;;;;;;;7.32;100.00;99037.39;271451;1271;22398;-84
2023/03/21 20:46:08;;;;;;;145.80;79.70;;;;;;;7.29;100.00;99034.34;270685;1264;22373;-84
2023/03/21 20:52:10;;;;;;;151.50;82.00;;;;;;;7.27;100.00;99034.45;271043;1273;22219;-84
2023/03/21 20:58:54;;;;;;;145.20;77.70;;;;;;;7.23;100.00;99032.89;272217;1260;22549;-84
2023/03/21 21:05:58;;;;;;;135.20;72.70;;;;;;;7.21;100.00;99028.33;269889;1273;22989;-84
2023/03/21 21:11:59;;;;;;;140.00;76.90;;;;;;;7.19;100.00;99033.23;262765;1273;10002107;-84
2023/03/21 21:18:01;;;;;;;114.00;64.40;;;;;;;7.18;100.00;99035.24;270906;1271;22563;-84
2023/03/21 21:24:03;;;;;;;140.10;73.00;;;;;;;7.16;100.00;99027.50;270627;1271;22689;-84
2023/03/21 21:30:12;;;;;;;138.40;74.50;;;;;;;7.12;100.00;99024.66;272108;1270;22295;-84
2023/03/21 21:36:13;;;;;;;140.70;74.60;;;;;;;7.07;100.00;99028.83;272860;1260;22473;-84
2023/03/21 21:42:15;;;;;;;134.20;68.20;;;;;;;7.02;100.00;99026.91;272163;1273;22541;-83
2023/03/21 21:48:17;;;;;;;130.60;70.90;;;;;;;6.94;100.00;99029.50;271842;1261;22234;-85
2023/03/21 21:54:19;;;;;;;140.50;72.10;;;;;;;6.93;100.00;99028.45;272920;1270;22399;-84
2023/03/21 22:00:22;;;;;;;124.50;65.90;;;;;;;6.96;100.00;99029.63;273110;1263;22207;-84
2023/03/21 22:06:24;;;;;;;112.90;61.60;;;;;;;6.92;100.00;99029.98;271555;1272;24935;-84
2023/03/21 22:12:26;;;;;;;127.10;66.90;;;;;;;6.85;100.00;99029.27;271054;1271;22396;-84
2023/03/21 22:18:28;;;;;;;129.70;70.20;;;;;;;6.84;100.00;99031.49;272960;1271;22182;-84
2023/03/21 22:24:29;;;;;;;128.30;69.20;;;;;;;6.80;100.00;99029.98;270111;1264;24059;-84
2023/03/21 22:30:31;;;;;;;131.10;66.70;;;;;;;6.74;100.00;99026.39;269841;1264;22519;-83
2023/03/21 22:36:34;;;;;;;122.10;65.10;;;;;;;6.71;100.00;99018.39;272896;1272;22442;-84
2023/03/21 22:42:36;;;;;;;118.00;62.50;;;;;;;6.64;100.00;99023.48;272977;1279;22223;-84
2023/03/21 22:48:38;;;;;;;116.30;62.80;;;;;;;6.62;100.00;99017.77;272904;1271;22397;-84
2023/03/21 22:54:39;;;;;;;118.90;62.60;;;;;;;6.61;100.00;99016.64;272939;1261;22422;-84
2023/03/21 23:00:41;;;;;;;141.00;70.10;;;;;;;6.60;100.00;99020.02;272915;1270;22268;-84
2023/03/21 23:06:49;;;;;;;129.40;68.20;;;;;;;6.62;100.00;99017.45;272894;1264;22254;-83
2023/03/21 23:12:51;;;;;;;135.00;64.40;;;;;;;6.61;100.00;99008.86;273060;1258;22230;-84
2023/03/21 23:18:54;;;;;;;123.10;61.80;;;;;;;6.50;100.00;99003.53;272901;1264;22436;-84
2023/03/21 23:24:55;;;;;;;118.20;61.10;;;;;;;6.44;100.00;99005.70;273012;1277;22259;-84
2023/03/21 23:30:57;;;;;;;119.70;59.30;;;;;;;6.47;100.00;99004.21;272973;1258;22411;-85
2023/03/21 23:36:58;;;;;;;124.30;62.20;;;;;;;6.47;100.00;99008.73;273139;1271;22368;-84
2023/03/21 23:43:00;;;;;;;110.30;59.40;;;;;;;6.41;100.00;99005.30;273048;1271;22208;-84
2023/03/21 23:49:02;;;;;;;128.00;64.80;;;;;;;6.36;100.00;98994.27;271602;1260;22528;-84
2023/03/21 23:55:14;;;;;;;130.20;65.00;;;;;;;6.32;100.00;98988.91;269840;1271;22562;-84
